sensor_id;sensor_type;location;lat;lon;timestamp;P1;durP1;ratioP1;P2;durP2;ratioP2
22468;SDS011;11401;50.792;4.352;2023-07-29T00:01:58;6.72;;;2.03;;
22468;SDS011;11401;50.792;4.352;2023-07-29T00:04:25;1.80;;;1.65;;
22468;SDS011;11401;50.792;4.352;2023-07-29T00:06:52;2.67;;;1.45;;
22468;SDS011;11401;50.792;4.352;2023-07-29T00:09:19;2.50;;;1.60;;
22468;SDS011;11401;50.792;4.352;2023-07-29T00:11:47;1.27;;;1.17;;
22468;SDS011;11401;50.792;4.352;2023-07-29T00:14:14;3.83;;;1.42;;
22468;SDS011;11401;50.792;4.352;2023-07-29T00:16:41;3.10;;;1.48;;
22468;SDS011;11401;50.792;4.352;2023-07-29T00:19:09;1.40;;;1.23;;
22468;SDS011;11401;50.792;4.352;2023-07-29T00:21:36;3.35;;;1.42;;
22468;SDS011;11401;50.792;4.352;2023-07-29T00:24:03;1.55;;;1.40;;
22468;SDS011;11401;50.792;4.352;2023-07-29T00:26:30;1.77;;;1.35;;
22468;SDS011;11401;50.792;4.352;2023-07-29T00:28:59;2.85;;;1.50;;
22468;SDS011;11401;50.792;4.352;2023-07-29T00:31:26;3.67;;;1.65;;
22468;SDS011;11401;50.792;4.352;2023-07-29T00:33:54;1.40;;;1.30;;
22468;SDS011;11401;50.792;4.352;2023-07-29T00:36:21;1.95;;;1.60;;
22468;SDS011;11401;50.792;4.352;2023-07-29T00:38:49;2.53;;;1.30;;
22468;SDS011;11401;50.792;4.352;2023-07-29T00:41:17;1.83;;;1.25;;
22468;SDS011;11401;50.792;4.352;2023-07-29T00:43:44;1.50;;;1.08;;
22468;SDS011;11401;50.792;4.352;2023-07-29T00:46:11;1.45;;;1.35;;
22468;SDS011;11401;50.792;4.352;2023-07-29T00:48:39;1.70;;;1.45;;
22468;SDS011;11401;50.792;4.352;2023-07-29T00:51:06;1.65;;;1.20;;
22468;SDS011;11401;50.792;4.352;2023-07-29T00:53:33;1.20;;;1.10;;
22468;SDS011;11401;50.792;4.352;2023-07-29T00:56:01;1.40;;;1.25;;
22468;SDS011;11401;50.792;4.352;2023-07-29T00:58:28;1.50;;;1.23;;
22468;SDS011;11401;50.792;4.352;2023-07-29T01:00:55;4.25;;;1.35;;
22468;SDS011;11401;50.792;4.352;2023-07-29T01:03:23;1.45;;;1.25;;
22468;SDS011;11401;50.792;4.352;2023-07-29T01:06:04;3.83;;;1.40;;
22468;SDS011;11401;50.792;4.352;2023-07-29T01:08:51;1.95;;;1.42;;
22468;SDS011;11401;50.792;4.352;2023-07-29T01:11:29;1.85;;;1.52;;
22468;SDS011;11401;50.792;4.352;2023-07-29T01:14:05;4.97;;;1.30;;
22468;SDS011;11401;50.792;4.352;2023-07-29T01:16:39;4.82;;;1.40;;
22468;SDS011;11401;50.792;4.352;2023-07-29T01:19:12;3.25;;;1.35;;
22468;SDS011;11401;50.792;4.352;2023-07-29T01:21:54;4.13;;;1.42;;
22468;SDS011;11401;50.792;4.352;2023-07-29T01:24:22;2.45;;;1.60;;
22468;SDS011;11401;50.792;4.352;2023-07-29T01:26:49;2.38;;;1.48;;
22468;SDS011;11401;50.792;4.352;2023-07-29T01:29:16;2.05;;;1.48;;
22468;SDS011;11401;50.792;4.352;2023-07-29T01:31:43;2.13;;;1.30;;
22468;SDS011;11401;50.792;4.352;2023-07-29T01:34:17;1.58;;;1.40;;
22468;SDS011;11401;50.792;4.352;2023-07-29T01:36:51;1.23;;;1.17;;
22468;SDS011;11401;50.792;4.352;2023-07-29T01:39:20;1.50;;;1.40;;
22468;SDS011;11401;50.792;4.352;2023-07-29T01:41:49;4.57;;;1.38;;
22468;SDS011;11401;50.792;4.352;2023-07-29T01:44:17;2.70;;;1.55;;
22468;SDS011;11401;50.792;4.352;2023-07-29T01:46:46;3.70;;;1.90;;
22468;SDS011;11401;50.792;4.352;2023-07-29T01:49:13;3.97;;;1.30;;
22468;SDS011;11401;50.792;4.352;2023-07-29T01:51:40;3.40;;;1.77;;
22468;SDS011;11401;50.792;4.352;2023-07-29T01:54:07;3.80;;;1.45;;
22468;SDS011;11401;50.792;4.352;2023-07-29T01:56:35;1.63;;;1.52;;
22468;SDS011;11401;50.792;4.352;2023-07-29T01:59:04;2.83;;;1.52;;
22468;SDS011;11401;50.792;4.352;2023-07-29T02:01:32;3.58;;;1.70;;
22468;SDS011;11401;50.792;4.352;2023-07-29T02:03:59;2.47;;;1.35;;
22468;SDS011;11401;50.792;4.352;2023-07-29T02:06:26;3.10;;;1.80;;
22468;SDS011;11401;50.792;4.352;2023-07-29T02:08:55;1.60;;;1.42;;
22468;SDS011;11401;50.792;4.352;2023-07-29T02:11:22;2.65;;;1.38;;
22468;SDS011;11401;50.792;4.352;2023-07-29T02:13:54;2.33;;;1.60;;
22468;SDS011;11401;50.792;4.352;2023-07-29T02:16:22;1.35;;;1.25;;
22468;SDS011;11401;50.792;4.352;2023-07-29T02:18:50;3.60;;;1.40;;
22468;SDS011;11401;50.792;4.352;2023-07-29T02:21:21;1.55;;;1.33;;
22468;SDS011;11401;50.792;4.352;2023-07-29T02:23:48;2.55;;;1.75;;
22468;SDS011;11401;50.792;4.352;2023-07-29T02:26:16;3.08;;;1.60;;
22468;SDS011;11401;50.792;4.352;2023-07-29T02:28:44;2.50;;;1.77;;
22468;SDS011;11401;50.792;4.352;2023-07-29T02:31:15;1.80;;;1.50;;
22468;SDS011;11401;50.792;4.352;2023-07-29T02:33:44;3.60;;;1.40;;
22468;SDS011;11401;50.792;4.352;2023-07-29T02:36:12;1.65;;;1.50;;
22468;SDS011;11401;50.792;4.352;2023-07-29T02:38:40;2.40;;;1.60;;
22468;SDS011;11401;50.792;4.352;2023-07-29T02:41:09;4.00;;;1.70;;
22468;SDS011;11401;50.792;4.352;2023-07-29T02:43:38;4.30;;;1.70;;
22468;SDS011;11401;50.792;4.352;2023-07-29T02:46:07;2.13;;;1.95;;
22468;SDS011;11401;50.792;4.352;2023-07-29T02:48:35;1.95;;;1.75;;
22468;SDS011;11401;50.792;4.352;2023-07-29T02:51:02;1.63;;;1.48;;
22468;SDS011;11401;50.792;4.352;2023-07-29T02:53:29;2.80;;;1.60;;
22468;SDS011;11401;50.792;4.352;2023-07-29T02:55:56;2.63;;;1.92;;
22468;SDS011;11401;50.792;4.352;2023-07-29T02:58:23;4.55;;;1.63;;
22468;SDS011;11401;50.792;4.352;2023-07-29T03:00:52;2.13;;;1.48;;
22468;SDS011;11401;50.792;4.352;2023-07-29T03:03:20;4.80;;;1.90;;
22468;SDS011;11401;50.792;4.352;2023-07-29T03:05:47;2.15;;;1.73;;
22468;SDS011;11401;50.792;4.352;2023-07-29T03:08:14;1.92;;;1.42;;
22468;SDS011;11401;50.792;4.352;2023-07-29T03:10:41;2.55;;;1.80;;
22468;SDS011;11401;50.792;4.352;2023-07-29T03:13:08;2.50;;;1.80;;
22468;SDS011;11401;50.792;4.352;2023-07-29T03:15:35;2.20;;;1.55;;
22468;SDS011;11401;50.792;4.352;2023-07-29T03:18:03;3.00;;;1.40;;
22468;SDS011;11401;50.792;4.352;2023-07-29T03:20:31;1.63;;;1.52;;
22468;SDS011;11401;50.792;4.352;2023-07-29T03:22:58;5.13;;;1.90;;
22468;SDS011;11401;50.792;4.352;2023-07-29T03:25:25;2.20;;;1.52;;
22468;SDS011;11401;50.792;4.352;2023-07-29T03:27:52;1.85;;;1.40;;
22468;SDS011;11401;50.792;4.352;2023-07-29T03:30:20;5.10;;;1.85;;
22468;SDS011;11401;50.792;4.352;2023-07-29T03:32:49;2.83;;;1.48;;
22468;SDS011;11401;50.792;4.352;2023-07-29T03:35:16;2.53;;;1.90;;
22468;SDS011;11401;50.792;4.352;2023-07-29T03:37:43;2.17;;;1.50;;
22468;SDS011;11401;50.792;4.352;2023-07-29T03:40:10;1.73;;;1.55;;
22468;SDS011;11401;50.792;4.352;2023-07-29T03:42:37;2.78;;;1.58;;
22468;SDS011;11401;50.792;4.352;2023-07-29T03:45:04;1.30;;;1.20;;
22468;SDS011;11401;50.792;4.352;2023-07-29T03:47:32;1.80;;;1.70;;
22468;SDS011;11401;50.792;4.352;2023-07-29T03:49:59;2.13;;;1.45;;
22468;SDS011;11401;50.792;4.352;2023-07-29T03:52:26;1.85;;;1.30;;
22468;SDS011;11401;50.792;4.352;2023-07-29T03:54:53;1.35;;;1.25;;
22468;SDS011;11401;50.792;4.352;2023-07-29T03:57:21;2.58;;;1.52;;
22468;SDS011;11401;50.792;4.352;2023-07-29T03:59:48;1.25;;;1.15;;
22468;SDS011;11401;50.792;4.352;2023-07-29T04:02:15;1.75;;;1.35;;
22468;SDS011;11401;50.792;4.352;2023-07-29T04:04:42;1.50;;;1.40;;
22468;SDS011;11401;50.792;4.352;2023-07-29T04:07:14;1.60;;;1.35;;
22468;SDS011;11401;50.792;4.352;2023-07-29T04:09:41;3.30;;;1.48;;
22468;SDS011;11401;50.792;4.352;2023-07-29T04:12:10;2.53;;;1.40;;
22468;SDS011;11401;50.792;4.352;2023-07-29T04:14:37;6.05;;;1.73;;
22468;SDS011;11401;50.792;4.352;2023-07-29T04:17:05;1.70;;;1.60;;
22468;SDS011;11401;50.792;4.352;2023-07-29T04:19:32;3.10;;;1.48;;
22468;SDS011;11401;50.792;4.352;2023-07-29T04:22:00;2.67;;;1.42;;
22468;SDS011;11401;50.792;4.352;2023-07-29T04:24:27;1.70;;;1.60;;
22468;SDS011;11401;50.792;4.352;2023-07-29T04:26:54;1.33;;;1.23;;
22468;SDS011;11401;50.792;4.352;2023-07-29T04:29:21;1.65;;;1.50;;
22468;SDS011;11401;50.792;4.352;2023-07-29T04:31:49;1.65;;;1.35;;
22468;SDS011;11401;50.792;4.352;2023-07-29T04:34:20;2.75;;;1.30;;
22468;SDS011;11401;50.792;4.352;2023-07-29T04:36:47;4.07;;;2.00;;
22468;SDS011;11401;50.792;4.352;2023-07-29T04:39:15;1.85;;;1.52;;
22468;SDS011;11401;50.792;4.352;2023-07-29T04:41:43;1.70;;;1.60;;
22468;SDS011;11401;50.792;4.352;2023-07-29T04:44:10;3.95;;;1.50;;
22468;SDS011;11401;50.792;4.352;2023-07-29T04:46:37;2.08;;;1.40;;
22468;SDS011;11401;50.792;4.352;2023-07-29T04:49:05;1.90;;;1.80;;
22468;SDS011;11401;50.792;4.352;2023-07-29T04:51:32;1.52;;;1.38;;
22468;SDS011;11401;50.792;4.352;2023-07-29T04:53:59;2.35;;;1.52;;
22468;SDS011;11401;50.792;4.352;2023-07-29T04:56:27;1.83;;;1.65;;
22468;SDS011;11401;50.792;4.352;2023-07-29T04:58:54;3.15;;;1.15;;
22468;SDS011;11401;50.792;4.352;2023-07-29T05:01:21;1.63;;;1.30;;
22468;SDS011;11401;50.792;4.352;2023-07-29T05:03:48;3.55;;;1.75;;
22468;SDS011;11401;50.792;4.352;2023-07-29T05:06:15;2.83;;;1.48;;
22468;SDS011;11401;50.792;4.352;2023-07-29T05:08:42;1.60;;;1.38;;
22468;SDS011;11401;50.792;4.352;2023-07-29T05:11:09;3.40;;;1.42;;
22468;SDS011;11401;50.792;4.352;2023-07-29T05:13:36;2.22;;;1.52;;
22468;SDS011;11401;50.792;4.352;2023-07-29T05:16:04;5.50;;;1.58;;
22468;SDS011;11401;50.792;4.352;2023-07-29T05:18:32;3.83;;;1.33;;
22468;SDS011;11401;50.792;4.352;2023-07-29T05:20:59;2.30;;;1.52;;
22468;SDS011;11401;50.792;4.352;2023-07-29T05:23:26;1.42;;;1.17;;
22468;SDS011;11401;50.792;4.352;2023-07-29T05:25:54;3.58;;;1.35;;
22468;SDS011;11401;50.792;4.352;2023-07-29T05:28:21;1.40;;;1.25;;
22468;SDS011;11401;50.792;4.352;2023-07-29T05:30:48;2.55;;;1.33;;
22468;SDS011;11401;50.792;4.352;2023-07-29T05:33:16;2.10;;;1.60;;
22468;SDS011;11401;50.792;4.352;2023-07-29T05:35:43;2.22;;;1.80;;
22468;SDS011;11401;50.792;4.352;2023-07-29T05:38:12;1.40;;;1.02;;
22468;SDS011;11401;50.792;4.352;2023-07-29T05:40:39;1.27;;;1.20;;
22468;SDS011;11401;50.792;4.352;2023-07-29T05:43:06;2.05;;;1.58;;
22468;SDS011;11401;50.792;4.352;2023-07-29T05:45:33;4.35;;;1.33;;
22468;SDS011;11401;50.792;4.352;2023-07-29T05:48:00;3.05;;;1.55;;
22468;SDS011;11401;50.792;4.352;2023-07-29T05:50:27;3.90;;;1.45;;
22468;SDS011;11401;50.792;4.352;2023-07-29T05:52:54;3.05;;;1.60;;
22468;SDS011;11401;50.792;4.352;2023-07-29T05:55:22;3.45;;;1.15;;
22468;SDS011;11401;50.792;4.352;2023-07-29T05:57:49;1.42;;;1.33;;
22468;SDS011;11401;50.792;4.352;2023-07-29T06:00:16;1.63;;;1.13;;
22468;SDS011;11401;50.792;4.352;2023-07-29T06:02:43;2.13;;;1.58;;
22468;SDS011;11401;50.792;4.352;2023-07-29T06:05:15;1.10;;;1.02;;
22468;SDS011;11401;50.792;4.352;2023-07-29T06:07:42;5.90;;;1.33;;
22468;SDS011;11401;50.792;4.352;2023-07-29T06:10:12;2.92;;;1.33;;
22468;SDS011;11401;50.792;4.352;2023-07-29T06:12:40;1.40;;;1.13;;
22468;SDS011;11401;50.792;4.352;2023-07-29T06:15:07;1.40;;;1.20;;
22468;SDS011;11401;50.792;4.352;2023-07-29T06:17:35;1.63;;;1.05;;
22468;SDS011;11401;50.792;4.352;2023-07-29T06:20:02;1.17;;;1.15;;
22468;SDS011;11401;50.792;4.352;2023-07-29T06:22:30;1.45;;;1.35;;
22468;SDS011;11401;50.792;4.352;2023-07-29T06:24:56;1.75;;;1.25;;
22468;SDS011;11401;50.792;4.352;2023-07-29T06:27:24;1.25;;;1.15;;
22468;SDS011;11401;50.792;4.352;2023-07-29T06:29:51;2.33;;;1.42;;
22468;SDS011;11401;50.792;4.352;2023-07-29T06:32:18;1.83;;;1.38;;
22468;SDS011;11401;50.792;4.352;2023-07-29T06:34:45;1.58;;;1.33;;
22468;SDS011;11401;50.792;4.352;2023-07-29T06:37:12;1.60;;;1.25;;
22468;SDS011;11401;50.792;4.352;2023-07-29T06:39:39;1.30;;;1.10;;
22468;SDS011;11401;50.792;4.352;2023-07-29T06:42:06;1.50;;;1.05;;
22468;SDS011;11401;50.792;4.352;2023-07-29T06:44:34;1.77;;;1.17;;
22468;SDS011;11401;50.792;4.352;2023-07-29T06:47:01;1.73;;;1.30;;
22468;SDS011;11401;50.792;4.352;2023-07-29T06:49:28;2.25;;;0.98;;
22468;SDS011;11401;50.792;4.352;2023-07-29T06:51:55;2.38;;;1.08;;
22468;SDS011;11401;50.792;4.352;2023-07-29T06:54:25;1.05;;;0.90;;
22468;SDS011;11401;50.792;4.352;2023-07-29T06:56:52;1.02;;;0.95;;
22468;SDS011;11401;50.792;4.352;2023-07-29T06:59:19;1.55;;;1.45;;
22468;SDS011;11401;50.792;4.352;2023-07-29T07:01:46;1.50;;;1.40;;
22468;SDS011;11401;50.792;4.352;2023-07-29T07:04:13;1.27;;;1.23;;
22468;SDS011;11401;50.792;4.352;2023-07-29T07:06:40;1.58;;;1.15;;
22468;SDS011;11401;50.792;4.352;2023-07-29T07:09:07;1.30;;;1.20;;
22468;SDS011;11401;50.792;4.352;2023-07-29T07:11:34;1.40;;;1.30;;
22468;SDS011;11401;50.792;4.352;2023-07-29T07:14:01;1.30;;;1.20;;
22468;SDS011;11401;50.792;4.352;2023-07-29T07:16:28;1.23;;;1.13;;
22468;SDS011;11401;50.792;4.352;2023-07-29T07:18:56;1.35;;;1.13;;
22468;SDS011;11401;50.792;4.352;2023-07-29T07:21:23;2.35;;;1.50;;
22468;SDS011;11401;50.792;4.352;2023-07-29T07:23:51;0.80;;;0.80;;
22468;SDS011;11401;50.792;4.352;2023-07-29T07:26:18;1.20;;;1.10;;
22468;SDS011;11401;50.792;4.352;2023-07-29T07:28:45;1.58;;;1.20;;
22468;SDS011;11401;50.792;4.352;2023-07-29T07:31:12;1.20;;;1.10;;
22468;SDS011;11401;50.792;4.352;2023-07-29T07:33:39;1.48;;;1.23;;
22468;SDS011;11401;50.792;4.352;2023-07-29T07:36:06;1.17;;;1.08;;
22468;SDS011;11401;50.792;4.352;2023-07-29T07:38:33;2.97;;;1.15;;
22468;SDS011;11401;50.792;4.352;2023-07-29T07:41:00;1.42;;;1.33;;
22468;SDS011;11401;50.792;4.352;2023-07-29T07:43:27;2.05;;;1.15;;
22468;SDS011;11401;50.792;4.352;2023-07-29T07:45:58;3.90;;;1.15;;
22468;SDS011;11401;50.792;4.352;2023-07-29T07:48:27;3.67;;;1.70;;
22468;SDS011;11401;50.792;4.352;2023-07-29T07:50:54;1.52;;;1.30;;
22468;SDS011;11401;50.792;4.352;2023-07-29T07:53:21;1.42;;;1.20;;
22468;SDS011;11401;50.792;4.352;2023-07-29T07:55:49;3.83;;;1.27;;
22468;SDS011;11401;50.792;4.352;2023-07-29T07:58:16;4.63;;;1.38;;
22468;SDS011;11401;50.792;4.352;2023-07-29T08:00:43;4.43;;;1.65;;
22468;SDS011;11401;50.792;4.352;2023-07-29T08:03:10;2.08;;;1.17;;
22468;SDS011;11401;50.792;4.352;2023-07-29T08:05:37;1.63;;;1.33;;
22468;SDS011;11401;50.792;4.352;2023-07-29T08:08:04;2.72;;;1.33;;
22468;SDS011;11401;50.792;4.352;2023-07-29T08:10:31;1.20;;;1.10;;
22468;SDS011;11401;50.792;4.352;2023-07-29T08:12:58;4.10;;;1.30;;
22468;SDS011;11401;50.792;4.352;2023-07-29T08:15:25;1.67;;;1.20;;
22468;SDS011;11401;50.792;4.352;2023-07-29T08:17:52;1.90;;;1.13;;
22468;SDS011;11401;50.792;4.352;2023-07-29T08:20:21;2.17;;;1.25;;
22468;SDS011;11401;50.792;4.352;2023-07-29T08:22:48;2.10;;;0.98;;
22468;SDS011;11401;50.792;4.352;2023-07-29T08:25:15;1.73;;;1.60;;
22468;SDS011;11401;50.792;4.352;2023-07-29T08:27:42;1.10;;;1.00;;
22468;SDS011;11401;50.792;4.352;2023-07-29T08:30:09;1.35;;;1.25;;
22468;SDS011;11401;50.792;4.352;2023-07-29T08:32:37;1.25;;;1.15;;
22468;SDS011;11401;50.792;4.352;2023-07-29T08:35:04;1.58;;;1.48;;
22468;SDS011;11401;50.792;4.352;2023-07-29T08:37:31;1.98;;;1.30;;
22468;SDS011;11401;50.792;4.352;2023-07-29T08:39:59;1.90;;;1.25;;
22468;SDS011;11401;50.792;4.352;2023-07-29T08:42:28;1.58;;;1.38;;
22468;SDS011;11401;50.792;4.352;2023-07-29T08:44:58;1.67;;;1.08;;
22468;SDS011;11401;50.792;4.352;2023-07-29T08:47:32;2.00;;;1.20;;
22468;SDS011;11401;50.792;4.352;2023-07-29T08:50:00;1.58;;;1.17;;
22468;SDS011;11401;50.792;4.352;2023-07-29T08:52:29;2.60;;;1.00;;
22468;SDS011;11401;50.792;4.352;2023-07-29T08:54:58;1.38;;;1.27;;
22468;SDS011;11401;50.792;4.352;2023-07-29T08:57:25;1.30;;;1.20;;
22468;SDS011;11401;50.792;4.352;2023-07-29T08:59:53;1.42;;;1.02;;
22468;SDS011;11401;50.792;4.352;2023-07-29T09:02:21;2.10;;;1.40;;
22468;SDS011;11401;50.792;4.352;2023-07-29T09:04:48;1.50;;;1.10;;
22468;SDS011;11401;50.792;4.352;2023-07-29T09:07:16;2.15;;;1.08;;
22468;SDS011;11401;50.792;4.352;2023-07-29T09:09:43;1.13;;;1.05;;
22468;SDS011;11401;50.792;4.352;2023-07-29T09:12:10;1.45;;;1.20;;
22468;SDS011;11401;50.792;4.352;2023-07-29T09:14:39;2.63;;;1.30;;
22468;SDS011;11401;50.792;4.352;2023-07-29T09:17:07;2.55;;;1.10;;
22468;SDS011;11401;50.792;4.352;2023-07-29T09:19:35;1.30;;;1.20;;
22468;SDS011;11401;50.792;4.352;2023-07-29T09:22:02;1.20;;;1.10;;
22468;SDS011;11401;50.792;4.352;2023-07-29T09:24:30;4.97;;;1.42;;
22468;SDS011;11401;50.792;4.352;2023-07-29T09:26:58;3.35;;;1.10;;
22468;SDS011;11401;50.792;4.352;2023-07-29T09:29:27;3.67;;;1.40;;
22468;SDS011;11401;50.792;4.352;2023-07-29T09:31:59;2.47;;;1.42;;
22468;SDS011;11401;50.792;4.352;2023-07-29T09:34:48;4.10;;;1.23;;
22468;SDS011;11401;50.792;4.352;2023-07-29T09:37:16;15.18;;;2.00;;
22468;SDS011;11401;50.792;4.352;2023-07-29T10:11:01;6.90;;;2.22;;
22468;SDS011;11401;50.792;4.352;2023-07-29T10:13:28;3.28;;;1.63;;
22468;SDS011;11401;50.792;4.352;2023-07-29T10:15:56;3.50;;;2.05;;
22468;SDS011;11401;50.792;4.352;2023-07-29T10:18:24;4.47;;;1.73;;
22468;SDS011;11401;50.792;4.352;2023-07-29T10:20:51;4.90;;;2.05;;
22468;SDS011;11401;50.792;4.352;2023-07-29T10:23:21;10.90;;;2.75;;
22468;SDS011;11401;50.792;4.352;2023-07-29T10:26:05;8.00;;;2.08;;
22468;SDS011;11401;50.792;4.352;2023-07-29T10:28:37;26.20;;;4.10;;
22468;SDS011;11401;50.792;4.352;2023-07-29T10:31:08;30.63;;;4.55;;
22468;SDS011;11401;50.792;4.352;2023-07-29T10:33:35;10.45;;;2.20;;
22468;SDS011;11401;50.792;4.352;2023-07-29T10:36:04;7.75;;;2.30;;
22468;SDS011;11401;50.792;4.352;2023-07-29T10:38:32;14.32;;;2.55;;
22468;SDS011;11401;50.792;4.352;2023-07-29T10:40:59;9.95;;;2.67;;
22468;SDS011;11401;50.792;4.352;2023-07-29T10:46:17;9.70;;;3.05;;
22468;SDS011;11401;50.792;4.352;2023-07-29T10:48:52;11.98;;;3.47;;
22468;SDS011;11401;50.792;4.352;2023-07-29T10:54:02;10.02;;;3.05;;
22468;SDS011;11401;50.792;4.352;2023-07-29T10:56:37;15.50;;;3.47;;
22468;SDS011;11401;50.792;4.352;2023-07-29T11:01:59;8.75;;;3.13;;
22468;SDS011;11401;50.792;4.352;2023-07-29T11:04:28;13.65;;;3.03;;
22468;SDS011;11401;50.792;4.352;2023-07-29T11:09:51;10.07;;;3.20;;
22468;SDS011;11401;50.792;4.352;2023-07-29T11:12:42;9.85;;;2.80;;
22468;SDS011;11401;50.792;4.352;2023-07-29T11:18:01;6.60;;;2.92;;
22468;SDS011;11401;50.792;4.352;2023-07-29T11:20:29;9.98;;;2.65;;
22468;SDS011;11401;50.792;4.352;2023-07-29T11:22:58;11.85;;;2.70;;
22468;SDS011;11401;50.792;4.352;2023-07-29T11:25:28;5.18;;;2.22;;
22468;SDS011;11401;50.792;4.352;2023-07-29T11:27:57;7.70;;;3.53;;
22468;SDS011;11401;50.792;4.352;2023-07-29T11:30:26;7.45;;;2.60;;
22468;SDS011;11401;50.792;4.352;2023-07-29T11:32:55;11.55;;;3.47;;
22468;SDS011;11401;50.792;4.352;2023-07-29T11:35:24;12.32;;;3.22;;
22468;SDS011;11401;50.792;4.352;2023-07-29T11:37:51;6.20;;;2.50;;
22468;SDS011;11401;50.792;4.352;2023-07-29T11:40:20;3.58;;;2.58;;
22468;SDS011;11401;50.792;4.352;2023-07-29T11:42:49;4.68;;;2.42;;
22468;SDS011;11401;50.792;4.352;2023-07-29T11:45:17;5.57;;;2.50;;
22468;SDS011;11401;50.792;4.352;2023-07-29T11:47:46;9.20;;;3.55;;
22468;SDS011;11401;50.792;4.352;2023-07-29T11:50:14;2.55;;;2.10;;
22468;SDS011;11401;50.792;4.352;2023-07-29T11:52:45;5.60;;;2.47;;
22468;SDS011;11401;50.792;4.352;2023-07-29T11:55:13;5.45;;;2.30;;
22468;SDS011;11401;50.792;4.352;2023-07-29T11:57:42;6.45;;;2.30;;
22468;SDS011;11401;50.792;4.352;2023-07-29T12:00:10;17.27;;;3.63;;
22468;SDS011;11401;50.792;4.352;2023-07-29T12:02:39;7.05;;;2.40;;
22468;SDS011;11401;50.792;4.352;2023-07-29T12:05:08;9.32;;;2.53;;
22468;SDS011;11401;50.792;4.352;2023-07-29T12:07:39;7.75;;;3.35;;
22468;SDS011;11401;50.792;4.352;2023-07-29T12:10:07;10.82;;;2.92;;
22468;SDS011;11401;50.792;4.352;2023-07-29T12:12:54;7.97;;;3.72;;
22468;SDS011;11401;50.792;4.352;2023-07-29T12:15:25;5.75;;;2.60;;
22468;SDS011;11401;50.792;4.352;2023-07-29T12:17:53;2.97;;;2.45;;
22468;SDS011;11401;50.792;4.352;2023-07-29T12:20:25;9.15;;;2.67;;
22468;SDS011;11401;50.792;4.352;2023-07-29T12:22:54;4.82;;;2.40;;
22468;SDS011;11401;50.792;4.352;2023-07-29T12:25:22;5.95;;;3.08;;
22468;SDS011;11401;50.792;4.352;2023-07-29T12:27:50;4.63;;;2.65;;
22468;SDS011;11401;50.792;4.352;2023-07-29T12:30:20;3.80;;;2.47;;
22468;SDS011;11401;50.792;4.352;2023-07-29T12:32:51;4.20;;;2.13;;
22468;SDS011;11401;50.792;4.352;2023-07-29T12:35:18;9.07;;;3.03;;
22468;SDS011;11401;50.792;4.352;2023-07-29T12:37:45;6.55;;;2.30;;
22468;SDS011;11401;50.792;4.352;2023-07-29T12:40:23;10.88;;;2.83;;
22468;SDS011;11401;50.792;4.352;2023-07-29T12:42:51;6.78;;;3.03;;
22468;SDS011;11401;50.792;4.352;2023-07-29T12:45:19;6.65;;;2.88;;
22468;SDS011;11401;50.792;4.352;2023-07-29T12:47:49;6.07;;;2.65;;
22468;SDS011;11401;50.792;4.352;2023-07-29T12:50:16;6.10;;;2.63;;
22468;SDS011;11401;50.792;4.352;2023-07-29T12:52:44;4.93;;;2.97;;
22468;SDS011;11401;50.792;4.352;2023-07-29T12:55:11;5.55;;;2.80;;
22468;SDS011;11401;50.792;4.352;2023-07-29T12:57:41;2.67;;;2.47;;
22468;SDS011;11401;50.792;4.352;2023-07-29T13:00:10;6.57;;;2.97;;
22468;SDS011;11401;50.792;4.352;2023-07-29T13:02:37;3.35;;;2.55;;
22468;SDS011;11401;50.792;4.352;2023-07-29T13:05:05;2.50;;;2.20;;
22468;SDS011;11401;50.792;4.352;2023-07-29T13:07:32;6.22;;;2.50;;
22468;SDS011;11401;50.792;4.352;2023-07-29T13:10:00;6.88;;;2.03;;
22468;SDS011;11401;50.792;4.352;2023-07-29T13:12:27;6.88;;;2.88;;
22468;SDS011;11401;50.792;4.352;2023-07-29T13:14:54;4.93;;;2.42;;
22468;SDS011;11401;50.792;4.352;2023-07-29T13:17:21;4.82;;;2.65;;
22468;SDS011;11401;50.792;4.352;2023-07-29T13:19:49;7.28;;;2.63;;
22468;SDS011;11401;50.792;4.352;2023-07-29T13:22:16;5.85;;;2.50;;
22468;SDS011;11401;50.792;4.352;2023-07-29T13:24:43;6.25;;;2.03;;
22468;SDS011;11401;50.792;4.352;2023-07-29T13:27:11;2.97;;;2.10;;
22468;SDS011;11401;50.792;4.352;2023-07-29T13:29:39;3.83;;;2.40;;
22468;SDS011;11401;50.792;4.352;2023-07-29T13:32:07;3.28;;;2.35;;
22468;SDS011;11401;50.792;4.352;2023-07-29T13:34:34;3.30;;;1.98;;
22468;SDS011;11401;50.792;4.352;2023-07-29T13:37:02;2.95;;;2.22;;
22468;SDS011;11401;50.792;4.352;2023-07-29T13:39:29;4.05;;;2.28;;
22468;SDS011;11401;50.792;4.352;2023-07-29T13:41:56;2.55;;;1.83;;
22468;SDS011;11401;50.792;4.352;2023-07-29T13:44:23;6.13;;;2.05;;
22468;SDS011;11401;50.792;4.352;2023-07-29T13:46:50;4.50;;;2.10;;
22468;SDS011;11401;50.792;4.352;2023-07-29T13:49:17;4.00;;;2.17;;
22468;SDS011;11401;50.792;4.352;2023-07-29T13:51:44;2.33;;;1.80;;
22468;SDS011;11401;50.792;4.352;2023-07-29T13:54:11;5.38;;;2.30;;
22468;SDS011;11401;50.792;4.352;2023-07-29T13:56:38;2.70;;;1.98;;
22468;SDS011;11401;50.792;4.352;2023-07-29T13:59:05;6.30;;;2.22;;
22468;SDS011;11401;50.792;4.352;2023-07-29T14:01:32;3.85;;;2.15;;
22468;SDS011;11401;50.792;4.352;2023-07-29T14:04:00;3.72;;;1.90;;
22468;SDS011;11401;50.792;4.352;2023-07-29T14:06:27;3.67;;;2.22;;
22468;SDS011;11401;50.792;4.352;2023-07-29T14:09:11;3.45;;;2.15;;
22468;SDS011;11401;50.792;4.352;2023-07-29T14:11:38;3.55;;;1.90;;
22468;SDS011;11401;50.792;4.352;2023-07-29T14:14:05;1.90;;;1.80;;
22468;SDS011;11401;50.792;4.352;2023-07-29T14:16:33;3.10;;;1.98;;
22468;SDS011;11401;50.792;4.352;2023-07-29T14:19:01;2.17;;;1.85;;
22468;SDS011;11401;50.792;4.352;2023-07-29T14:21:28;5.82;;;1.90;;
22468;SDS011;11401;50.792;4.352;2023-07-29T14:23:55;4.47;;;1.80;;
22468;SDS011;11401;50.792;4.352;2023-07-29T14:26:22;3.55;;;2.13;;
22468;SDS011;11401;50.792;4.352;2023-07-29T14:28:49;4.75;;;2.03;;
22468;SDS011;11401;50.792;4.352;2023-07-29T14:31:16;2.97;;;2.08;;
22468;SDS011;11401;50.792;4.352;2023-07-29T14:33:43;162.85;;;19.88;;
22468;SDS011;11401;50.792;4.352;2023-07-29T14:36:11;86.88;;;12.10;;
22468;SDS011;11401;50.792;4.352;2023-07-29T14:38:38;140.73;;;19.27;;
22468;SDS011;11401;50.792;4.352;2023-07-29T14:41:05;50.05;;;8.63;;
22468;SDS011;11401;50.792;4.352;2023-07-29T14:43:33;31.65;;;5.07;;
22468;SDS011;11401;50.792;4.352;2023-07-29T14:46:01;87.75;;;13.32;;
22468;SDS011;11401;50.792;4.352;2023-07-29T14:48:29;54.95;;;8.80;;
22468;SDS011;11401;50.792;4.352;2023-07-29T14:50:56;51.30;;;6.97;;
22468;SDS011;11401;50.792;4.352;2023-07-29T14:53:23;49.03;;;7.38;;
22468;SDS011;11401;50.792;4.352;2023-07-29T14:55:50;55.95;;;8.75;;
22468;SDS011;11401;50.792;4.352;2023-07-29T14:58:17;47.47;;;7.38;;
22468;SDS011;11401;50.792;4.352;2023-07-29T15:00:44;30.23;;;4.90;;
22468;SDS011;11401;50.792;4.352;2023-07-29T15:03:12;31.13;;;5.38;;
22468;SDS011;11401;50.792;4.352;2023-07-29T15:05:39;21.63;;;4.88;;
22468;SDS011;11401;50.792;4.352;2023-07-29T15:08:07;19.77;;;3.40;;
22468;SDS011;11401;50.792;4.352;2023-07-29T15:10:34;20.27;;;4.30;;
22468;SDS011;11401;50.792;4.352;2023-07-29T15:13:01;5.20;;;2.53;;
22468;SDS011;11401;50.792;4.352;2023-07-29T15:15:28;18.42;;;3.25;;
22468;SDS011;11401;50.792;4.352;2023-07-29T15:17:56;8.60;;;2.33;;
22468;SDS011;11401;50.792;4.352;2023-07-29T15:20:23;8.23;;;2.50;;
22468;SDS011;11401;50.792;4.352;2023-07-29T15:22:51;18.23;;;2.97;;
22468;SDS011;11401;50.792;4.352;2023-07-29T15:25:18;6.05;;;1.90;;
22468;SDS011;11401;50.792;4.352;2023-07-29T15:27:45;6.75;;;2.00;;
22468;SDS011;11401;50.792;4.352;2023-07-29T15:30:13;3.70;;;1.55;;
22468;SDS011;11401;50.792;4.352;2023-07-29T15:32:40;4.78;;;2.22;;
22468;SDS011;11401;50.792;4.352;2023-07-29T15:35:08;5.22;;;1.90;;
22468;SDS011;11401;50.792;4.352;2023-07-29T15:37:35;5.63;;;1.67;;